• Join FlightAware (Why Join?)
  • Login
  • US Flag 
07:43AM EST


 

Airport Tracker/Info


-or-


 

Live Flight TrackerFlight Track Log ✈ DAL3784 ✈ 17-Apr-2013 ✈ KATW - KDTW

Flight Track Log - Related Links

Times and Time Zones

All times are in EDT time to prevent confusion due to time zone crossing. See the DAL3784 flight status page for this flight to view local times or setup timezone preferences in your user account.

Time Position Orientation Groundspeed Altitude Reporting Facility
EDT Latitude Longitude Course Direction KTS MPH feet Rate Location/Type
07:16PM 44.2761 -88.3608 125° Southeast 193 222 5,600  Level Minneapolis Center
07:17PM 44.4692 -88.2743 39° Northeast  Level FlightAware Approximate
07:17PM 44.2686 -88.2547 96° East 261 300 7,800  Level Minneapolis Center
07:18PM 44.5420 -88.1924 39° Northeast  Level FlightAware Approximate
07:18PM 44.2561 -88.1481 99° East 272 313 9,900  Level Minneapolis Center
07:19PM 44.5168 -88.0780 108° East  Level FlightAware Approximate
07:19PM 44.2350 -88.0225 103° East 320 368 10,800  Level Minneapolis Center
07:20PM 44.4449 -87.9820 136° Southeast  Level FlightAware Approximate
07:20PM 44.2089 -87.8639 103° East 357 411 12,800  Level Minneapolis Center
07:21PM 44.3841 -87.8683 125° Southeast  Level FlightAware Approximate
07:21PM 44.1853 -87.7219 103° East 372 428 13,900  Level Minneapolis Center
07:22PM 44.1606 -87.5711 103° East 394 453 14,900 960 Climbing Minneapolis Center
07:23PM 44.1358 -87.4133 102° East 411 473 15,900 1,020 Climbing Minneapolis Center
07:24PM 44.1097 -87.2533 103° East 421 484 17,100 1,080 Climbing Minneapolis Center
07:25PM 44.0847 -87.1044 103° East 423 487 18,200 1,140 Climbing Minneapolis Center
07:26PM 44.0528 -86.9142 103° East 423 487 19,500 1,140 Climbing Minneapolis Center
07:27PM 44.0256 -86.7544 103° East 425 489 20,600 1,020 Climbing Minneapolis Center
07:28PM 43.9989 -86.5947 103° East 425 489 21,600 780 Climbing Minneapolis Center
07:30PM 43.9703 -86.4350 104° East 426 490 22,300 660 Climbing Minneapolis Center
07:31PM 43.9425 -86.2731 103° East 430 495 23,000 300 Climbing Minneapolis Center
07:32PM 43.9117 -86.1067 104° East 441 507 23,000  Level Minneapolis Center
07:33PM 43.8819 -85.9361 104° East 451 519 23,000  Level Minneapolis Center
07:34PM 43.8517 -85.7672 104° East 452 520 23,000  Level Minneapolis Center
07:35PM 43.8256 -85.6253 104° East 458 527 23,000  Level Minneapolis Center
07:36PM 43.7825 -85.3881 104° East 459 528 23,000  Level Minneapolis Center
07:37PM 43.7383 -85.2275 111° Southeast 454 522 23,000  Level Minneapolis Center
07:38PM 43.6656 -85.0900 126° Southeast 448 516 23,000  Level Minneapolis Center
07:39PM 43.5928 -84.9525 126° Southeast 443 510 23,000  Level Minneapolis Center
07:40PM 43.5219 -84.8172 126° Southeast 438 504 23,000 -360 Level Minneapolis Center
07:41PM 43.4500 -84.6817 126° Southeast 438 504 22,300 -1,140 Descending Minneapolis Center
07:42PM 43.3719 -84.5419 128° Southeast 438 504 20,900 -1,380 Descending Cleveland Center
07:42PM 43.3772 -84.5481 320° Northwest 437 503 20,900 -900 Level Minneapolis Center
07:43PM 43.3094 -84.4181 126° Southeast 417 480 20,000 -540 Descending Cleveland Center
07:44PM 43.3117 -84.2839 89° East 352 405 20,000  Level Cleveland Center
07:45PM 43.3869 -84.2086 36° Northeast 274 315 20,000  Level Cleveland Center
07:46PM 43.4686 -84.1331 34° Northeast 300 345 20,000  Level Cleveland Center
07:47PM 43.5542 -84.0578 33° Northeast 328 377 20,000  Level Cleveland Center
07:48PM 43.5489 -83.9603 94° East 289 333 20,000  Level Cleveland Center
07:49PM 43.4814 -83.9136 153° Southeast 194 223 20,000  Level Cleveland Center
07:50PM 43.4086 -83.9011 173° South 209 241 20,000  Level Cleveland Center
07:51PM 43.3339 -83.8942 176° South 240 276 20,000  Level Cleveland Center
07:52PM 43.2589 -83.8900 178° South 264 304 20,000 -60 Level Cleveland Center
07:53PM 43.2072 -83.9472 219° Southwest 260 299 19,900 -600 Descending Cleveland Center
07:54PM 43.2275 -84.0367 287° West 169 194 18,800 -1,080 Descending Cleveland Center
07:55PM 43.3042 -84.0581 349° North 161 185 17,800 -900 Descending Cleveland Center
07:56PM 43.3872 -84.0683 355° North 219 252 17,000 -900 Descending Cleveland Center
07:57PM 43.4703 -84.0731 358° North 265 305 16,000 -960 Descending Cleveland Center
07:58PM 43.5494 -84.0778 358° North 275 316 15,100 -780 Descending Cleveland Center
07:59PM 43.5911 -84.0056 51° Northeast 246 283 14,500 -540 Descending Cleveland Center
08:00PM 43.5453 -83.9369 133° Southeast 164 189 14,100 -240 Descending Cleveland Center
08:01PM 43.4794 -83.9078 162° South 154 177 14,100  Level Cleveland Center
08:02PM 43.4008 -83.8892 170° South 224 258 14,100  Level Cleveland Center
08:03PM 43.3181 -83.8675 169° South 279 321 14,100  Level Cleveland Center
08:04PM 43.2292 -83.8431 169° South 310 357 14,100 -300 Level Cleveland Center
08:05PM 43.1422 -83.8214 170° South 326 375 13,600 -780 Descending Cleveland Center
08:06PM 43.0614 -83.7972 168° South 278 320 12,700 -720 Descending Cleveland Center
08:07PM 42.9869 -83.7764 168° South 298 343 12,200 -420 Descending Cleveland Center
08:07PM 42.9478 -83.7686 172° South 277 319 12,100 -240 Descending Cleveland Center
08:08PM 42.9106 -83.7581 168° South 292 336 12,000 -120 Descending Cleveland Center
08:08PM 42.8711 -83.7447 166° South 284 327 12,000  Level Cleveland Center
08:09PM 42.8258 -83.7311 168° South 292 336 12,000  Level Cleveland Center
08:09PM 42.8011 -83.7158 156° South 287 330 12,000  Level Cleveland Center
08:10PM 42.7622 -83.6911 155° Southeast 287 330 12,000  Level Cleveland Center
08:10PM 42.7292 -83.6728 158° South 288 331 12,000  Level Cleveland Center
08:11PM 42.6861 -83.6481 157° South 287 330 12,000  Level Cleveland Center
08:11PM 42.6553 -83.6294 156° South 290 334 12,000  Level Cleveland Center
08:12PM 42.6144 -83.6050 156° South 287 330 12,000  Level Cleveland Center
08:12PM 42.5775 -83.5833 157° South 288 331 12,000  Level Cleveland Center
08:13PM 42.5406 -83.5619 157° South 287 330 12,000  Level Cleveland Center
08:13PM 42.5117 -83.5464 158° South 288 331 12,000  Level Cleveland Center
08:14PM 42.4667 -83.5161 154° Southeast 287 330 12,000  Level Cleveland Center
08:14PM 42.4294 -83.4947 157° South 290 334 12,000  Level Cleveland Center
08:15PM 42.3864 -83.4703 157° South 294 338 12,000  Level Cleveland Center
08:15PM 42.3531 -83.4689 178° South 250 288 12,000 -540 Level Cleveland Center
08:16PM 42.2906 -83.4658 178° South 209 241 11,200 -1,020 Descending Cleveland Center
08:17PM 42.2422 -83.4861 197° South 201 231 10,100 -1,200 Descending Cleveland Center
08:18PM 42.1806 -83.5367 211° Southwest 206 237 8,700 -1,140 Descending Cleveland Center
08:19PM 42.1419 -83.5711 213° Southwest 201 231 7,800 -1,080 Descending Cleveland Center
08:20PM 42.0950 -83.6111 212° Southwest 201 231 6,800 -1,320 Descending Cleveland Center
08:21PM 42.0442 -83.5694 149° Southeast 246 283 5,100 -1,440 Descending Cleveland Center
08:23PM 42.0606 -83.4919 74° East 194 223 3,700 -1,020 Descending Cleveland Center
08:23PM 42.0989 -83.4600 32° Northeast 182 209 3,100 -660 Descending Cleveland Center